createdAt,value
2018-07-19T00:16:32.948Z,21.75
2018-07-19T00:19:03.394Z,21.75
2018-07-19T00:21:33.466Z,21.72
2018-07-19T00:24:03.361Z,21.66
2018-07-19T00:26:33.910Z,21.57
2018-07-19T00:29:04.009Z,21.59
2018-07-19T00:31:34.252Z,21.43
2018-07-19T00:34:04.623Z,21.45
2018-07-19T00:36:34.938Z,21.40
2018-07-19T00:39:06.703Z,21.50
2018-07-19T00:41:37.055Z,21.49
2018-07-19T00:44:08.761Z,21.41
2018-07-19T00:46:39.705Z,21.54
2018-07-19T00:49:10.284Z,21.58
2018-07-19T00:51:40.775Z,21.68
2018-07-19T00:54:11.113Z,21.70
2018-07-19T00:56:41.649Z,21.75
2018-07-19T00:59:12.043Z,21.80
2018-07-19T01:01:42.435Z,21.84
2018-07-19T01:04:12.536Z,21.72
2018-07-19T01:06:42.703Z,21.68
2018-07-19T01:09:13.419Z,21.62
2018-07-19T01:11:43.702Z,21.55
2018-07-19T01:14:14.326Z,21.45
2018-07-19T01:16:45.907Z,21.44
2018-07-19T01:19:16.196Z,21.53
2018-07-19T01:21:46.831Z,21.57
2018-07-19T01:24:17.374Z,21.60
2018-07-19T01:26:47.670Z,21.60
2018-07-19T01:29:17.562Z,21.67
2018-07-19T01:31:48.020Z,21.59
2018-07-19T01:34:18.574Z,21.62
2018-07-19T01:36:48.930Z,21.67
2018-07-19T01:39:18.933Z,21.67
2018-07-19T01:42:27.456Z,21.66
2018-07-19T01:44:58.507Z,21.63
2018-07-19T01:47:28.733Z,21.62
2018-07-19T01:49:59.355Z,21.61
2018-07-19T01:52:29.991Z,21.68
2018-07-19T01:55:00.852Z,21.56
2018-07-19T01:57:31.531Z,21.46
2018-07-19T02:00:01.800Z,21.43
2018-07-19T02:02:32.206Z,21.37
2018-07-19T02:05:02.769Z,21.31
2018-07-19T02:07:33.581Z,21.26
2018-07-19T02:10:03.757Z,21.30
2018-07-19T02:12:34.310Z,21.27
2018-07-19T02:15:04.714Z,21.22
2018-07-19T02:17:34.985Z,21.19
2018-07-19T02:20:05.495Z,21.23
2018-07-19T02:22:35.659Z,21.14
2018-07-19T02:25:06.023Z,21.10
2018-07-19T02:27:36.616Z,21.15
2018-07-19T02:30:06.542Z,21.11
2018-07-19T02:32:37.267Z,21.20
2018-07-19T02:35:07.881Z,21.16
2018-07-19T02:37:38.245Z,21.14
2018-07-19T02:40:08.430Z,21.13
2018-07-19T02:42:39.247Z,21.08
2018-07-19T02:45:10.008Z,21.05
2018-07-19T02:47:40.475Z,20.98
2018-07-19T02:50:10.626Z,21.04
2018-07-19T02:52:41.266Z,21.03
2018-07-19T02:55:12.003Z,21.05
2018-07-19T02:57:42.384Z,21.14
2018-07-19T03:00:12.809Z,21.20
2018-07-19T03:02:43.410Z,21.14
2018-07-19T03:05:13.540Z,21.16
2018-07-19T03:07:43.674Z,21.08
2018-07-19T03:10:14.139Z,21.14
2018-07-19T03:12:44.209Z,21.04
2018-07-19T03:15:15.010Z,21.04
2018-07-19T03:17:45.495Z,21.08
2018-07-19T03:20:15.820Z,21.17
2018-07-19T03:22:45.963Z,21.12
2018-07-19T03:25:16.330Z,21.11
2018-07-19T03:27:52.523Z,21.26
2018-07-19T03:30:22.522Z,21.28
2018-07-19T03:32:53.916Z,21.48
2018-07-19T03:35:24.281Z,21.55
2018-07-19T03:37:55.123Z,21.63
2018-07-19T03:40:25.184Z,21.76
2018-07-19T03:42:55.318Z,21.73
2018-07-19T03:45:25.619Z,21.88
2018-07-19T03:47:55.926Z,21.88
2018-07-19T03:50:26.360Z,21.93
2018-07-19T03:52:56.419Z,21.83
2018-07-19T03:55:27.191Z,21.88
2018-07-19T03:57:57.369Z,22.18
2018-07-19T04:00:27.574Z,21.96
2018-07-19T04:02:58.006Z,21.78
2018-07-19T04:05:28.578Z,21.89
2018-07-19T04:07:58.798Z,22.10
2018-07-19T04:10:29.209Z,22.19
2018-07-19T04:12:59.466Z,22.38
2018-07-19T04:15:30.098Z,22.29
2018-07-19T04:18:00.625Z,22.36
2018-07-19T04:20:31.827Z,22.35
2018-07-19T04:23:02.171Z,22.25
2018-07-19T04:25:32.648Z,22.40
2018-07-19T04:28:02.517Z,22.24
2018-07-19T04:30:33.062Z,22.34
2018-07-19T04:33:03.517Z,22.23
2018-07-19T04:35:33.709Z,22.25
2018-07-19T04:38:03.946Z,22.27
2018-07-19T04:40:34.392Z,22.22
2018-07-19T04:43:05.498Z,22.35
2018-07-19T04:45:35.778Z,22.44
2018-07-19T04:48:06.452Z,22.47
2018-07-19T04:50:36.657Z,22.44
2018-07-19T04:53:07.263Z,22.73
2018-07-19T04:55:37.218Z,22.61
2018-07-19T04:58:07.309Z,22.76
2018-07-19T05:00:38.118Z,22.85
2018-07-19T05:03:08.079Z,22.91
2018-07-19T05:05:38.546Z,22.83
2018-07-19T05:08:09.307Z,22.85
2018-07-19T05:10:39.866Z,22.90
2018-07-19T05:13:10.925Z,22.93
2018-07-19T05:15:41.992Z,23.06
2018-07-19T05:18:12.369Z,22.92
2018-07-19T05:20:42.653Z,23.13
2018-07-19T05:23:12.953Z,23.06
2018-07-19T05:25:43.406Z,23.20
2018-07-19T05:28:13.329Z,23.24
2018-07-19T05:30:43.589Z,23.13
2018-07-19T05:33:13.539Z,23.19
2018-07-19T05:35:43.560Z,23.38
2018-07-19T05:38:13.632Z,23.51
2018-07-19T05:40:43.936Z,23.55
2018-07-19T05:43:14.213Z,23.73
2018-07-19T05:45:44.352Z,23.57
2018-07-19T05:48:14.235Z,23.57
2018-07-19T05:50:44.355Z,23.64
2018-07-19T05:53:14.483Z,23.68
2018-07-19T05:55:45.110Z,23.68
2018-07-19T05:58:15.119Z,23.94
2018-07-19T06:00:45.472Z,24.08
2018-07-19T06:03:15.524Z,24.04
2018-07-19T06:05:45.895Z,24.01
2018-07-19T06:08:16.612Z,24.11
2018-07-19T06:10:46.732Z,24.03
2018-07-19T06:13:16.791Z,24.15
2018-07-19T06:15:46.799Z,24.02
2018-07-19T06:18:16.800Z,24.35
2018-07-19T06:20:46.995Z,24.45
2018-07-19T06:23:16.851Z,24.54
2018-07-19T06:25:46.832Z,24.70
2018-07-19T06:28:16.965Z,24.62
2018-07-19T06:30:46.665Z,25.02
2018-07-19T06:33:16.596Z,25.01
2018-07-19T06:35:46.936Z,24.92
2018-07-19T06:38:17.445Z,24.91
2018-07-19T06:40:47.840Z,25.08
2018-07-19T06:43:17.988Z,24.77
2018-07-19T06:45:47.871Z,24.68
2018-07-19T06:48:18.176Z,24.84
2018-07-19T06:50:48.074Z,25.17
2018-07-19T06:53:18.097Z,25.23
2018-07-19T06:55:48.321Z,25.15
2018-07-19T06:58:18.147Z,25.34
2018-07-19T07:00:48.356Z,25.49
2018-07-19T07:03:18.757Z,25.40
2018-07-19T07:05:49.164Z,25.63
2018-07-19T07:08:19.264Z,25.44
2018-07-19T07:10:49.361Z,25.54
2018-07-19T07:13:19.713Z,25.82
2018-07-19T07:15:49.839Z,25.65
2018-07-19T07:18:19.965Z,25.65
2018-07-19T07:20:49.953Z,26.05
2018-07-19T07:23:19.859Z,25.82
2018-07-19T07:25:52.926Z,26.18
2018-07-19T07:28:24.459Z,26.29
2018-07-19T07:30:54.672Z,26.23
2018-07-19T07:33:24.873Z,26.05
2018-07-19T07:35:54.913Z,26.22
2018-07-19T07:38:25.415Z,26.28
2018-07-19T07:40:55.655Z,26.33
2018-07-19T07:43:26.284Z,26.40
2018-07-19T07:45:56.193Z,26.66
2018-07-19T07:48:27.233Z,26.56
2018-07-19T07:50:57.439Z,26.56
2018-07-19T07:53:27.829Z,26.68
2018-07-19T07:55:58.088Z,26.53
2018-07-19T07:58:28.219Z,26.72
2018-07-19T08:00:59.411Z,26.85
2018-07-19T08:03:29.400Z,26.87
2018-07-19T08:05:59.380Z,26.67
2018-07-19T08:08:29.609Z,26.78
2018-07-19T08:10:59.981Z,26.91
2018-07-19T08:13:30.486Z,26.97
2018-07-19T08:16:00.761Z,27.08
2018-07-19T08:18:30.901Z,27.07
2018-07-19T08:21:01.173Z,27.12
2018-07-19T08:23:31.701Z,27.22
2018-07-19T08:26:01.701Z,26.89
2018-07-19T08:28:31.749Z,26.87
2018-07-19T08:31:01.511Z,27.23
2018-07-19T08:33:32.046Z,26.95
2018-07-19T08:36:02.194Z,27.27
2018-07-19T08:38:32.841Z,27.23
2018-07-19T08:41:02.676Z,27.35
2018-07-19T08:43:33.135Z,27.25
2018-07-19T08:46:03.443Z,27.52
2018-07-19T08:48:33.496Z,27.47
2018-07-19T08:51:03.461Z,27.51
2018-07-19T08:53:33.695Z,27.70
2018-07-19T08:56:03.581Z,27.43
2018-07-19T08:58:34.048Z,28.02
2018-07-19T09:01:04.331Z,28.06
2018-07-19T09:03:34.605Z,27.88
2018-07-19T09:06:04.612Z,28.25
2018-07-19T09:08:34.776Z,27.65
2018-07-19T09:11:04.705Z,27.28
2018-07-19T09:13:34.737Z,27.57
2018-07-19T09:16:04.914Z,27.80
2018-07-19T09:18:34.946Z,27.64
2018-07-19T09:21:04.928Z,28.01
2018-07-19T09:23:34.863Z,28.42
2018-07-19T09:26:04.808Z,28.12
2018-07-19T09:28:34.643Z,28.44
2018-07-19T09:31:04.433Z,28.43
2018-07-19T09:33:34.513Z,28.32
2018-07-19T09:36:04.684Z,28.79
2018-07-19T09:38:34.879Z,28.79
2018-07-19T09:41:05.123Z,28.08
2018-07-19T09:43:35.793Z,28.41
2018-07-19T09:46:06.236Z,28.23
2018-07-19T09:48:36.228Z,28.13
2018-07-19T09:51:06.333Z,28.20
2018-07-19T09:53:36.415Z,28.59
2018-07-19T09:56:06.540Z,28.37
2018-07-19T09:58:37.060Z,28.63
2018-07-19T10:01:13.272Z,28.57
2018-07-19T10:03:44.081Z,28.60
2018-07-19T10:06:14.463Z,28.71
2018-07-19T10:08:44.920Z,29.15
2018-07-19T10:11:15.039Z,29.28
2018-07-19T10:13:45.549Z,29.05
2018-07-19T10:16:15.640Z,29.01
2018-07-19T10:18:45.980Z,28.93
2018-07-19T10:21:16.321Z,28.98
2018-07-19T10:23:46.588Z,28.88
2018-07-19T10:26:16.652Z,28.79
2018-07-19T10:28:46.589Z,29.30
2018-07-19T10:31:16.937Z,29.45
2018-07-19T10:33:47.056Z,29.46
2018-07-19T10:36:16.904Z,29.11
2018-07-19T10:38:47.044Z,29.03
2018-07-19T10:41:17.537Z,30.18
2018-07-19T10:43:47.801Z,29.35
2018-07-19T10:46:18.337Z,29.28
2018-07-19T10:48:48.412Z,29.43
2018-07-19T10:51:18.323Z,29.49
2018-07-19T10:53:48.392Z,29.34
2018-07-19T10:56:18.351Z,29.34
2018-07-19T10:58:48.745Z,29.04
2018-07-19T11:01:19.585Z,29.16
2018-07-19T11:03:49.709Z,28.93
2018-07-19T11:06:19.661Z,29.54
2018-07-19T11:08:50.161Z,29.64
2018-07-19T11:11:20.077Z,28.81
2018-07-19T11:13:50.563Z,28.44
2018-07-19T11:16:20.519Z,28.21
2018-07-19T11:18:50.677Z,27.82
2018-07-19T11:21:20.908Z,27.73
2018-07-19T11:23:51.017Z,27.94
2018-07-19T11:26:21.026Z,28.17
2018-07-19T11:28:51.056Z,28.31
2018-07-19T11:31:20.910Z,28.32
2018-07-19T11:33:51.494Z,28.29
2018-07-19T11:36:21.554Z,27.90
2018-07-19T11:38:52.153Z,27.50
2018-07-19T11:41:22.402Z,27.04
2018-07-19T11:43:52.646Z,26.62
2018-07-19T11:46:22.644Z,26.24
2018-07-19T11:48:52.797Z,26.09
2018-07-19T11:51:22.673Z,26.45
2018-07-19T11:53:52.732Z,26.90
2018-07-19T11:56:22.670Z,28.13
2018-07-19T11:58:52.841Z,29.01
2018-07-19T12:01:22.958Z,28.99
2018-07-19T12:03:53.517Z,28.91
2018-07-19T12:06:23.411Z,28.84
2018-07-19T12:08:53.463Z,28.43
2018-07-19T12:11:23.821Z,28.04
2018-07-19T12:13:53.724Z,27.79
2018-07-19T12:16:23.981Z,27.58
2018-07-19T12:18:53.935Z,27.40
2018-07-19T12:21:23.847Z,27.30
2018-07-19T12:23:54.337Z,27.25
2018-07-19T12:26:24.595Z,27.16
2018-07-19T12:28:54.428Z,26.83
2018-07-19T12:31:24.210Z,26.60
2018-07-19T12:33:54.275Z,26.58
2018-07-19T12:36:24.215Z,26.00
2018-07-19T12:38:54.425Z,25.99
2018-07-19T12:41:24.654Z,26.17
2018-07-19T12:43:54.710Z,26.25
2018-07-19T12:46:24.717Z,26.19
2018-07-19T12:48:54.641Z,26.21
2018-07-19T12:51:24.805Z,26.75
2018-07-19T12:55:06.374Z,26.72
2018-07-19T12:57:36.335Z,25.45
2018-07-19T13:00:06.876Z,25.23
2018-07-19T13:02:36.949Z,25.46
2018-07-19T13:05:06.876Z,26.39
2018-07-19T13:07:36.941Z,26.64
2018-07-19T13:10:06.904Z,26.77
2018-07-19T13:12:37.018Z,26.85
2018-07-19T13:15:07.685Z,27.13
2018-07-19T13:17:37.753Z,27.73
2018-07-19T13:20:07.967Z,27.48
2018-07-19T13:22:38.296Z,27.39
2018-07-19T13:25:08.116Z,27.85
2018-07-19T13:27:38.185Z,28.77
2018-07-19T13:30:07.964Z,30.61
2018-07-19T13:32:38.443Z,30.67
2018-07-19T13:35:08.597Z,30.65
2018-07-19T13:37:38.776Z,30.30
2018-07-19T13:40:08.741Z,30.08
2018-07-19T13:42:38.846Z,28.43
2018-07-19T13:45:09.244Z,28.28
2018-07-19T13:47:39.353Z,28.06
2018-07-19T13:50:09.525Z,27.54
2018-07-19T13:52:50.730Z,28.15
2018-07-19T13:55:20.825Z,30.14
2018-07-19T13:57:50.947Z,29.88
2018-07-19T14:00:20.951Z,30.58
2018-07-19T14:02:51.648Z,30.81
2018-07-19T14:05:21.649Z,31.54
2018-07-19T14:07:51.794Z,31.26
2018-07-19T14:10:22.002Z,30.75
2018-07-19T14:12:52.049Z,30.08
2018-07-19T14:15:22.356Z,29.71
2018-07-19T14:17:52.509Z,29.46
2018-07-19T14:20:22.485Z,29.05
2018-07-19T14:22:53.793Z,29.29
2018-07-19T14:25:23.799Z,30.20
2018-07-19T14:27:59.468Z,31.05
2018-07-19T14:30:29.466Z,29.21
2018-07-19T14:32:59.385Z,30.26
2018-07-19T14:35:29.404Z,30.89
2018-07-19T14:37:59.401Z,30.88
2018-07-19T14:40:29.393Z,32.20
2018-07-19T14:42:59.717Z,32.69
2018-07-19T14:45:29.973Z,32.96
2018-07-19T14:48:00.234Z,32.53
2018-07-19T14:50:30.134Z,31.71
2018-07-19T14:53:00.485Z,29.96
2018-07-19T14:55:30.398Z,29.67
2018-07-19T14:58:00.565Z,28.86
2018-07-19T15:00:30.560Z,29.23
2018-07-19T15:03:00.528Z,28.93
2018-07-19T15:05:30.727Z,28.78
2018-07-19T15:08:00.725Z,28.94
2018-07-19T15:10:30.785Z,28.79
2018-07-19T15:13:00.653Z,28.94
2018-07-19T15:15:30.578Z,29.58
2018-07-19T15:18:00.644Z,28.90
2018-07-19T15:20:30.663Z,28.71
2018-07-19T15:23:00.536Z,28.59
2018-07-19T15:25:30.613Z,28.47
2018-07-19T15:28:00.713Z,28.38
2018-07-19T15:30:30.453Z,28.61
2018-07-19T15:33:01.042Z,28.31
2018-07-19T15:35:31.036Z,28.39
2018-07-19T15:38:01.370Z,28.26
2018-07-19T15:40:31.281Z,28.15
2018-07-19T15:43:01.171Z,28.60
2018-07-19T15:45:31.038Z,28.33
2018-07-19T15:48:00.930Z,28.52
2018-07-19T15:50:30.732Z,29.73
2018-07-19T15:53:00.797Z,30.86
2018-07-19T15:55:30.757Z,31.02
2018-07-19T15:58:00.707Z,30.48
2018-07-19T16:00:30.633Z,29.93
2018-07-19T16:03:01.033Z,28.96
2018-07-19T16:05:31.184Z,29.35
2018-07-19T16:08:01.395Z,28.78
2018-07-19T16:10:31.805Z,28.41
2018-07-19T16:13:02.068Z,28.27
2018-07-19T16:15:32.274Z,28.31
2018-07-19T16:18:02.217Z,27.79
2018-07-19T16:20:32.682Z,27.65
2018-07-19T16:23:03.281Z,27.52
2018-07-19T16:25:33.485Z,27.45
2018-07-19T16:28:03.381Z,27.35
2018-07-19T16:30:33.137Z,27.42
2018-07-19T16:33:02.986Z,27.20
2018-07-19T16:35:34.142Z,27.14
2018-07-19T16:38:04.455Z,27.27
2018-07-19T16:40:34.591Z,27.09
2018-07-19T16:43:04.701Z,27.04
2018-07-19T16:45:34.529Z,27.11
2018-07-19T16:48:04.564Z,27.04
2018-07-19T16:50:34.550Z,27.11
2018-07-19T16:53:04.456Z,26.95
2018-07-19T16:55:34.558Z,26.92
2018-07-19T16:58:04.373Z,27.01
2018-07-19T17:00:35.531Z,27.04
2018-07-19T17:03:05.675Z,27.02
2018-07-19T17:05:35.611Z,26.88
2018-07-19T17:08:05.624Z,26.69
2018-07-19T17:10:35.545Z,26.56
2018-07-19T17:13:05.740Z,26.57
2018-07-19T17:15:35.676Z,26.63
2018-07-19T17:18:05.865Z,26.47
2018-07-19T17:20:35.880Z,26.52
2018-07-19T17:23:06.246Z,26.32
2018-07-19T17:25:36.243Z,26.19
2018-07-19T17:28:06.235Z,26.11
2018-07-19T17:30:36.229Z,26.21
2018-07-19T17:33:06.284Z,26.14
2018-07-19T17:35:36.520Z,26.00
2018-07-19T17:38:07.165Z,26.05
2018-07-19T17:40:37.215Z,26.11
2018-07-19T17:43:07.441Z,25.97
2018-07-19T17:45:37.486Z,25.91
2018-07-19T17:48:07.616Z,25.90
2018-07-19T17:50:37.814Z,25.89
2018-07-19T17:53:07.843Z,26.03
2018-07-19T17:55:37.892Z,25.85
2018-07-19T17:58:07.985Z,25.69
2018-07-19T18:00:37.905Z,25.65
2018-07-19T18:03:09.194Z,25.58
2018-07-19T18:05:39.035Z,25.57
2018-07-19T18:08:09.592Z,25.71
2018-07-19T18:10:39.599Z,25.73
2018-07-19T18:13:09.715Z,25.56
2018-07-19T18:15:39.672Z,25.56
2018-07-19T18:18:09.903Z,25.57
2018-07-19T18:20:39.882Z,25.48
2018-07-19T18:23:10.454Z,25.45
2018-07-19T18:25:40.394Z,25.32
2018-07-19T18:28:10.743Z,25.19
2018-07-19T18:30:40.647Z,25.14
2018-07-19T18:33:10.686Z,25.08
2018-07-19T18:35:40.556Z,25.12
2018-07-19T18:38:10.872Z,24.99
2018-07-19T18:40:40.825Z,24.92
2018-07-19T18:43:11.108Z,24.87
2018-07-19T18:45:41.053Z,24.98
2018-07-19T18:48:11.168Z,24.87
2018-07-19T18:50:41.099Z,24.86
2018-07-19T18:53:11.118Z,24.81
2018-07-19T18:55:40.953Z,24.87
2018-07-19T18:58:10.861Z,24.70
2018-07-19T19:00:40.924Z,24.58
2018-07-19T19:03:11.239Z,24.61
2018-07-19T19:05:41.471Z,24.56
2018-07-19T19:08:11.572Z,24.47
2018-07-19T19:10:41.855Z,24.50
2018-07-19T19:13:11.801Z,24.39
2018-07-19T19:15:41.878Z,24.54
2018-07-19T19:18:11.726Z,24.57
2018-07-19T19:20:41.893Z,24.33
2018-07-19T19:23:11.828Z,24.21
2018-07-19T19:25:41.977Z,24.28
2018-07-19T19:28:12.911Z,24.20
2018-07-19T19:30:43.096Z,24.28
2018-07-19T19:33:13.487Z,24.24
2018-07-19T19:35:43.463Z,24.35
2018-07-19T19:38:13.638Z,24.31
2018-07-19T19:40:43.484Z,24.33
2018-07-19T19:43:13.555Z,24.24
2018-07-19T19:45:43.509Z,24.18
2018-07-19T19:48:14.676Z,24.11
2018-07-19T19:50:44.548Z,24.13
2018-07-19T19:53:14.495Z,24.11
2018-07-19T19:55:44.391Z,24.08
2018-07-19T19:58:14.756Z,23.96
2018-07-19T20:00:44.760Z,23.94
2018-07-19T20:03:15.022Z,23.86
2018-07-19T20:05:45.951Z,23.82
2018-07-19T20:08:15.899Z,23.85
2018-07-19T20:10:46.844Z,24.03
2018-07-19T20:13:16.801Z,23.87
2018-07-19T20:15:46.772Z,23.87
2018-07-19T20:18:16.651Z,23.89
2018-07-19T20:20:46.684Z,23.91
2018-07-19T20:23:16.821Z,23.92
2018-07-19T20:25:46.856Z,23.93
2018-07-19T20:28:16.875Z,23.90
2018-07-19T20:30:47.068Z,23.92
2018-07-19T20:33:16.952Z,23.94
2018-07-19T20:35:46.802Z,23.92
2018-07-19T20:38:16.809Z,23.89
2018-07-19T20:40:47.061Z,23.90
2018-07-19T20:43:17.016Z,23.99
2018-07-19T20:45:47.061Z,23.86
2018-07-19T20:48:17.139Z,23.89
2018-07-19T20:50:47.090Z,23.92
2018-07-19T20:53:16.963Z,23.92
2018-07-19T20:55:46.855Z,23.90
2018-07-19T20:58:16.950Z,23.89
2018-07-19T21:00:46.987Z,23.76
2018-07-19T21:03:17.310Z,23.72
2018-07-19T21:05:47.325Z,23.69
2018-07-19T21:08:17.350Z,23.66
2018-07-19T21:10:47.206Z,23.60
2018-07-19T21:13:17.400Z,23.69
2018-07-19T21:15:47.337Z,23.69
2018-07-19T21:18:17.389Z,23.52
2018-07-19T21:20:47.300Z,23.52
2018-07-19T21:23:17.953Z,23.50
2018-07-19T21:25:48.362Z,23.51
2018-07-19T21:28:18.604Z,23.48
2018-07-19T21:30:48.492Z,23.45
2018-07-19T21:33:18.773Z,23.45
2018-07-19T21:35:48.703Z,23.50
2018-07-19T21:38:18.462Z,23.49
2018-07-19T21:40:48.311Z,23.47
2018-07-19T21:43:18.804Z,23.42
2018-07-19T21:45:48.976Z,23.37
2018-07-19T21:48:19.213Z,23.46
2018-07-19T21:50:49.015Z,23.45
2018-07-19T21:53:19.047Z,23.46
2018-07-19T21:55:48.908Z,23.50
2018-07-19T21:58:19.088Z,23.52
2018-07-19T22:00:54.299Z,23.54
2018-07-19T22:03:24.284Z,23.49
2018-07-19T22:05:54.241Z,23.55
2018-07-19T22:08:24.349Z,23.57
2018-07-19T22:10:54.365Z,23.53
2018-07-19T22:13:24.368Z,23.66
2018-07-19T22:15:54.595Z,23.60
2018-07-19T22:18:25.421Z,23.80
2018-07-19T22:20:55.347Z,23.75
2018-07-19T22:23:25.391Z,23.77
2018-07-19T22:25:55.231Z,23.80
2018-07-19T22:28:25.199Z,23.82
2018-07-19T22:30:55.484Z,23.78
2018-07-19T22:33:25.823Z,23.83
2018-07-19T22:35:55.703Z,23.75
2018-07-19T22:38:25.716Z,23.76
2018-07-19T22:40:55.796Z,23.78
2018-07-19T22:43:25.752Z,23.75
2018-07-19T22:45:56.319Z,23.75
2018-07-19T22:48:26.150Z,23.86
2018-07-19T22:50:56.133Z,23.90
2018-07-19T22:53:26.453Z,23.92
2018-07-19T22:55:56.484Z,23.86
2018-07-19T22:58:26.633Z,23.86
2018-07-19T23:00:57.320Z,23.82
2018-07-19T23:03:27.717Z,23.85
2018-07-19T23:05:57.698Z,23.76
2018-07-19T23:08:27.737Z,23.84
2018-07-19T23:10:58.049Z,23.79
2018-07-19T23:13:28.113Z,23.75
2018-07-19T23:15:57.953Z,23.84
2018-07-19T23:18:27.832Z,23.83
2018-07-19T23:20:57.679Z,23.86
2018-07-19T23:23:28.001Z,23.89
2018-07-19T23:25:58.095Z,23.86
2018-07-19T23:28:28.496Z,23.84
2018-07-19T23:30:58.491Z,23.83
2018-07-19T23:33:28.939Z,23.96
2018-07-19T23:36:02.585Z,23.78
2018-07-19T23:38:36.428Z,23.86
2018-07-19T23:41:10.535Z,23.77
2018-07-19T23:43:42.600Z,23.70
2018-07-19T23:46:18.924Z,23.68
2018-07-19T23:48:49.127Z,23.66
2018-07-19T23:51:19.164Z,23.53
2018-07-19T23:53:49.272Z,23.43
2018-07-19T23:56:19.157Z,23.39
2018-07-19T23:58:49.004Z,23.33
